Time;durP1;ratioP1;P1;durP2;ratioP2;P2;SDS_P1;SDS_P2;PMS_P1;PMS_P2;Temp;Humidity;BMP_temperature;BMP_pressure;BME280_temperature;BME280_humidity;BME280_pressure;Samples;Min_cycle;Max_cycle;Signal;HPM_P1;HPM_P2
2022/05/16 00:00:37;;;;;;;1.58;0.88;;;14.50;99.90;;;;;;4985384;28;21427;-71
2022/05/16 00:03:05;;;;;;;0.25;0.25;;;14.40;99.90;;;;;;4961650;28;20077;-71
2022/05/16 00:05:31;;;;;;;1.02;0.57;;;14.40;99.90;;;;;;4984416;28;20047;-70
2022/05/16 00:07:57;;;;;;;0.60;0.52;;;14.40;99.90;;;;;;4985128;28;20078;-70
2022/05/16 00:10:24;;;;;;;2.67;0.98;;;14.30;99.90;;;;;;4980480;28;20030;-72
2022/05/16 00:12:50;;;;;;;0.85;0.40;;;14.30;99.90;;;;;;4984501;28;20027;-69
2022/05/16 00:15:18;;;;;;;1.08;0.63;;;14.30;99.90;;;;;;4985037;28;20566;-70
2022/05/16 00:17:44;;;;;;;1.83;0.88;;;14.30;99.90;;;;;;4984451;28;20027;-70
2022/05/16 00:20:10;;;;;;;1.67;0.90;;;14.20;99.90;;;;;;4984945;28;20073;-70
2022/05/16 00:22:36;;;;;;;0.52;0.52;;;14.20;99.90;;;;;;4984335;28;20035;-71
2022/05/16 04:10:03;;;;;;;1.58;1.00;;;11.90;99.90;;;;;;4808407;23;20069;-69
2022/05/16 04:12:34;;;;;;;4.90;1.17;;;11.90;99.90;;;;;;4971455;28;20042;-70
2022/05/16 04:15:01;;;;;;;5.90;1.08;;;11.90;99.90;;;;;;4978972;28;20034;-70
2022/05/16 04:17:26;;;;;;;2.30;0.95;;;12.00;99.90;;;;;;4977546;28;20027;-69
2022/05/16 04:19:52;;;;;;;1.15;0.80;;;12.00;99.90;;;;;;4979231;28;20034;-69
2022/05/16 04:22:19;;;;;;;4.72;1.10;;;12.00;99.90;;;;;;4977521;28;20022;-71
2022/05/16 04:24:44;;;;;;;3.05;1.30;;;12.10;99.90;;;;;;4975048;28;20039;-71
2022/05/16 04:27:10;;;;;;;5.22;0.90;;;12.00;99.90;;;;;;4978336;28;20057;-69
2022/05/16 04:29:36;;;;;;;2.25;1.38;;;12.10;99.90;;;;;;4978953;28;20150;-70
2022/05/16 04:32:02;;;;;;;3.75;1.10;;;12.10;99.90;;;;;;4975720;28;20506;-70
2022/05/16 04:34:27;;;;;;;2.38;0.90;;;12.20;99.90;;;;;;4973746;28;20023;-69
2022/05/16 04:36:53;;;;;;;2.97;1.00;;;12.20;99.90;;;;;;4978741;28;20042;-70
2022/05/16 04:39:19;;;;;;;1.45;0.80;;;12.20;99.90;;;;;;4975875;28;20094;-71
2022/05/16 04:44:30;;;;;;;4.75;1.08;;;12.20;99.90;;;;;;4976291;28;20038;-70
2022/05/16 04:46:56;;;;;;;5.78;1.45;;;12.20;99.90;;;;;;4975555;28;20047;-68
2022/05/16 04:49:22;;;;;;;1.20;0.80;;;12.30;99.90;;;;;;4976765;28;20031;-69
2022/05/16 04:51:47;;;;;;;1.98;1.05;;;12.30;99.90;;;;;;4974982;28;20034;-68
2022/05/16 04:54:13;;;;;;;1.80;1.02;;;12.30;99.90;;;;;;4974303;28;20534;-70
2022/05/16 04:56:38;;;;;;;2.35;0.80;;;12.40;99.90;;;;;;4974836;28;20096;-70
2022/05/16 04:59:05;;;;;;;1.95;0.93;;;12.40;99.90;;;;;;4974431;28;20027;-69
2022/05/16 05:01:31;;;;;;;3.15;1.10;;;12.40;99.90;;;;;;4976297;28;20483;-68
2022/05/16 05:03:57;;;;;;;6.97;1.25;;;12.40;99.90;;;;;;4975918;28;20035;-68
2022/05/16 05:06:22;;;;;;;2.80;1.45;;;12.50;99.90;;;;;;4975838;28;20042;-70
2022/05/16 05:08:48;;;;;;;1.30;0.90;;;12.50;99.90;;;;;;4975455;28;20038;-69
2022/05/16 05:14:33;;;;;;;7.32;1.00;;;12.60;99.90;;;;;;4914347;29;20032;-69
2022/05/16 05:17:11;;;;;;;2.73;1.60;;;12.70;99.90;;;;;;4968794;28;20042;-70
2022/05/16 05:19:40;;;;;;;1.85;1.23;;;12.70;99.90;;;;;;4974705;28;20023;-71
2022/05/16 05:22:07;;;;;;;3.38;1.52;;;12.80;99.90;;;;;;4976277;28;20023;-70
2022/05/16 05:24:33;;;;;;;2.83;1.20;;;12.80;99.90;;;;;;4973863;28;20109;-70
2022/05/16 05:26:59;;;;;;;2.63;1.02;;;12.80;99.90;;;;;;4972577;28;20051;-70
2022/05/16 05:29:25;;;;;;;3.47;1.13;;;12.90;99.90;;;;;;4974156;28;20047;-70
2022/05/16 05:31:52;;;;;;;1.77;1.27;;;12.90;99.90;;;;;;4974920;28;20027;-69
2022/05/16 05:34:18;;;;;;;5.70;1.60;;;13.00;99.90;;;;;;4975918;28;20019;-70
2022/05/16 05:36:44;;;;;;;4.68;1.23;;;13.00;99.90;;;;;;4973383;28;20031;-71
2022/05/16 05:39:20;;;;;;;2.70;1.45;;;13.10;99.90;;;;;;4971996;28;20031;-70
2022/05/16 05:41:45;;;;;;;6.15;1.13;;;13.10;99.90;;;;;;4977750;28;20052;-70
2022/05/16 05:44:12;;;;;;;3.75;1.15;;;13.20;99.90;;;;;;4975047;28;20034;-69
2022/05/16 05:46:40;;;;;;;4.10;1.20;;;13.30;99.90;;;;;;4974168;28;20046;-70
2022/05/16 05:49:09;;;;;;;2.38;1.35;;;13.30;99.90;;;;;;4974261;28;20042;-73
2022/05/16 05:51:35;;;;;;;4.13;1.30;;;13.40;99.90;;;;;;4956429;28;20036;-69
2022/05/16 05:54:01;;;;;;;5.93;1.52;;;13.40;99.90;;;;;;4973538;28;20029;-69
2022/05/16 05:56:27;;;;;;;2.53;1.45;;;13.60;99.90;;;;;;4973516;28;20027;-69
2022/05/16 05:58:54;;;;;;;4.85;1.00;;;13.70;99.90;;;;;;4973235;28;20459;-71
2022/05/16 06:01:19;;;;;;;3.13;1.17;;;13.70;99.90;;;;;;4972420;28;20034;-68
2022/05/16 06:03:45;;;;;;;3.35;1.38;;;13.80;99.90;;;;;;4972991;28;20031;-71
2022/05/16 06:06:10;;;;;;;3.92;1.40;;;14.00;99.90;;;;;;4973937;28;20051;-70
2022/05/16 06:08:36;;;;;;;1.85;1.10;;;14.00;99.90;;;;;;4973505;28;20026;-71
2022/05/16 06:11:02;;;;;;;6.95;1.50;;;14.10;99.90;;;;;;4972728;28;20051;-69
2022/05/16 06:13:29;;;;;;;10.80;1.45;;;14.10;99.90;;;;;;4972813;28;20038;-69
2022/05/16 06:15:54;;;;;;;3.03;1.15;;;14.20;99.90;;;;;;4975648;28;20050;-69
2022/05/16 06:18:20;;;;;;;2.45;1.20;;;14.30;99.90;;;;;;4973154;28;20035;-70
2022/05/16 06:20:48;;;;;;;1.50;1.00;;;14.40;99.90;;;;;;4973427;28;20062;-71
2022/05/16 06:23:14;;;;;;;5.28;1.13;;;14.60;99.90;;;;;;4973523;28;20033;-72
2022/05/16 06:25:42;;;;;;;5.45;1.40;;;14.70;99.90;;;;;;4977138;28;20728;-70
2022/05/16 06:28:09;;;;;;;1.30;1.02;;;14.80;99.90;;;;;;4976248;28;20015;-70
2022/05/16 06:30:38;;;;;;;2.30;1.38;;;14.90;99.90;;;;;;4978149;28;20050;-70
2022/05/16 06:33:05;;;;;;;2.58;1.15;;;15.00;99.90;;;;;;4976663;28;20085;-71
2022/05/16 06:35:31;;;;;;;3.97;1.67;;;15.10;99.90;;;;;;4976852;28;20431;-71
2022/05/16 06:38:02;;;;;;;2.03;1.02;;;15.20;99.90;;;;;;4976271;28;20111;-70
2022/05/16 06:40:31;;;;;;;9.88;1.58;;;15.30;99.90;;;;;;4977223;28;20030;-71
2022/05/16 06:42:57;;;;;;;1.17;0.75;;;15.40;99.90;;;;;;4977015;28;20032;-70
2022/05/16 06:45:22;;;;;;;5.13;1.40;;;15.60;99.90;;;;;;4979056;28;20045;-71
2022/05/16 06:47:48;;;;;;;5.85;1.27;;;15.70;99.90;;;;;;4977834;28;20050;-70
2022/05/16 06:50:13;;;;;;;2.22;0.95;;;15.90;99.90;;;;;;4976532;28;20035;-72
2022/05/16 06:52:39;;;;;;;2.03;1.25;;;16.00;99.90;;;;;;4977408;28;20035;-70
2022/05/16 06:55:05;;;;;;;6.20;1.38;;;16.20;99.90;;;;;;4976642;28;20070;-71
2022/05/16 06:57:33;;;;;;;4.45;1.60;;;16.20;99.90;;;;;;4975932;28;20108;-70
2022/05/16 06:59:59;;;;;;;1.85;1.10;;;16.30;99.90;;;;;;4976135;28;20030;-71
2022/05/16 07:02:24;;;;;;;8.50;1.58;;;16.40;99.90;;;;;;4976722;28;20015;-71
2022/05/16 07:04:50;;;;;;;5.00;1.52;;;16.40;99.90;;;;;;4976523;28;20027;-70
2022/05/16 07:07:19;;;;;;;1.98;1.17;;;16.50;99.90;;;;;;4976084;28;20104;-71
2022/05/16 07:09:46;;;;;;;4.43;1.35;;;16.50;99.90;;;;;;4976744;28;20039;-70
2022/05/16 07:12:12;;;;;;;1.63;0.90;;;16.60;99.90;;;;;;4974815;28;20039;-72
2022/05/16 07:14:38;;;;;;;1.38;1.05;;;16.70;99.90;;;;;;4979181;28;20069;-71
2022/05/16 07:17:04;;;;;;;2.85;1.25;;;16.70;99.90;;;;;;4976937;28;20054;-71
2022/05/16 07:19:31;;;;;;;7.20;1.10;;;16.80;99.90;;;;;;4975251;28;20027;-71
2022/05/16 07:21:58;;;;;;;4.03;0.90;;;16.80;99.90;;;;;;4975488;28;20485;-72
2022/05/16 07:24:25;;;;;;;5.20;1.45;;;16.90;99.90;;;;;;4974732;28;20103;-71
2022/05/16 07:29:34;;;;;;;4.80;1.35;;;17.10;99.90;;;;;;4976277;28;20054;-71
2022/05/16 07:32:00;;;;;;;15.65;1.65;;;17.10;99.90;;;;;;4976466;28;20083;-71
2022/05/16 07:34:26;;;;;;;5.13;1.25;;;17.20;99.90;;;;;;4975194;28;20028;-71
2022/05/16 07:36:52;;;;;;;1.85;1.17;;;17.30;99.90;;;;;;4974852;28;20091;-71
2022/05/16 07:39:17;;;;;;;9.70;1.30;;;17.50;99.90;;;;;;4975459;28;20024;-73
2022/05/16 07:41:44;;;;;;;3.38;1.13;;;17.60;99.90;;;;;;4975056;28;20027;-71
2022/05/16 07:44:10;;;;;;;2.92;1.05;;;17.80;99.90;;;;;;4979704;28;20526;-71
2022/05/16 07:46:35;;;;;;;1.35;0.90;;;17.90;99.90;;;;;;4976474;28;20094;-71
2022/05/16 07:49:01;;;;;;;2.63;1.10;;;18.10;99.90;;;;;;4974738;28;20031;-71
2022/05/16 07:51:26;;;;;;;5.20;1.70;;;18.20;99.90;;;;;;4976482;28;20028;-71
2022/05/16 07:53:53;;;;;;;3.80;1.25;;;18.20;99.90;;;;;;4958034;28;20403;-70
2022/05/16 07:56:21;;;;;;;1.13;0.95;;;18.40;99.90;;;;;;4973262;28;20023;-71
2022/05/16 07:58:48;;;;;;;21.67;1.35;;;18.50;99.90;;;;;;4976043;28;20015;-73
2022/05/16 08:01:14;;;;;;;1.98;1.10;;;18.60;99.90;;;;;;4974928;28;20084;-72
2022/05/16 08:03:39;;;;;;;3.33;1.20;;;18.70;99.90;;;;;;4974925;28;20128;-71
2022/05/16 08:06:05;;;;;;;2.92;1.05;;;19.00;99.90;;;;;;4974310;28;20696;-72
2022/05/16 08:11:15;;;;;;;0.80;0.73;;;19.20;99.90;;;;;;4974325;28;20061;-73
2022/05/16 08:13:43;;;;;;;2.88;1.02;;;19.30;99.90;;;;;;4974537;28;20045;-71
2022/05/16 08:16:12;;;;;;;2.17;1.25;;;19.20;99.90;;;;;;4980741;28;20058;-72
2022/05/16 08:18:45;;;;;;;2.90;1.33;;;19.20;99.90;;;;;;4975439;28;20078;-71
2022/05/16 08:21:11;;;;;;;15.10;1.55;;;19.20;99.90;;;;;;4974501;28;20584;-69
2022/05/16 08:23:38;;;;;;;1.73;1.02;;;19.20;99.90;;;;;;4974238;28;20039;-69
2022/05/16 08:26:04;;;;;;;1.75;0.90;;;19.20;99.90;;;;;;4976266;28;20043;-70
2022/05/16 08:28:32;;;;;;;2.22;0.98;;;19.40;99.90;;;;;;4972962;28;20019;-71
2022/05/16 08:30:58;;;;;;;1.42;1.00;;;19.40;99.90;;;;;;4974649;28;20054;-69
2022/05/16 08:33:27;;;;;;;3.78;1.30;;;19.60;99.90;;;;;;4974580;28;20027;-70
2022/05/16 08:41:28;;;;;;;1.60;0.93;;;19.90;99.90;;;;;;4975596;28;20054;-71
2022/05/16 08:44:35;;;;;;;2.30;1.20;;;20.10;99.90;;;;;;4974540;28;20046;-72
2022/05/16 08:47:21;;;;;;;2.60;1.27;;;20.20;99.90;;;;;;4973496;28;20035;-71
2022/05/16 08:49:54;;;;;;;1.63;1.10;;;20.40;99.90;;;;;;4974153;28;20098;-74
2022/05/16 08:52:20;;;;;;;8.75;1.35;;;20.70;99.90;;;;;;4956081;28;20050;-72
2022/05/16 08:54:53;;;;;;;6.72;1.45;;;20.80;99.90;;;;;;4972486;28;20019;-70
2022/05/16 08:57:55;;;;;;;3.00;1.50;;;20.90;99.90;;;;;;4975612;28;20034;-70
2022/05/16 09:00:36;;;;;;;5.72;1.75;;;21.10;99.90;;;;;;4929229;28;20038;-71
2022/05/16 09:03:05;;;;;;;3.50;1.20;;;21.30;99.90;;;;;;4973666;28;20051;-69
2022/05/16 09:05:44;;;;;;;4.22;1.65;;;21.50;99.90;;;;;;4973695;28;20039;-69
2022/05/16 09:08:23;;;;;;;4.68;1.80;;;21.70;99.90;;;;;;4973284;28;20035;-72
2022/05/16 09:11:02;;;;;;;4.20;1.30;;;21.90;99.90;;;;;;4972879;28;20043;-70
2022/05/16 09:13:34;;;;;;;1.75;0.93;;;22.10;99.90;;;;;;4974022;28;20030;-73
2022/05/16 09:16:27;;;;;;;3.78;0.90;;;22.20;99.90;;;;;;4973422;28;20046;-69
2022/05/16 09:19:13;;;;;;;6.70;1.30;;;22.30;99.90;;;;;;4974513;28;20038;-69
2022/05/16 09:22:01;;;;;;;2.13;1.02;;;22.40;99.90;;;;;;4942671;28;20082;-70
2022/05/16 09:24:35;;;;;;;2.70;1.05;;;22.50;99.90;;;;;;4973080;28;20090;-71
2022/05/16 09:30:09;;;;;;;2.63;1.05;;;22.70;99.90;;;;;;4973692;28;20039;-70
2022/05/16 09:32:41;;;;;;;5.80;1.30;;;22.60;99.90;;;;;;4974684;28;20510;-75
2022/05/16 09:35:24;;;;;;;3.10;1.10;;;22.70;99.90;;;;;;4972192;28;20022;-70
2022/05/16 09:37:53;;;;;;;2.60;1.10;;;22.60;99.90;;;;;;4973160;28;20615;-72
2022/05/16 09:40:23;;;;;;;3.38;1.40;;;22.70;99.90;;;;;;4973534;28;20778;-71
2022/05/16 09:42:50;;;;;;;2.78;1.25;;;22.70;99.90;;;;;;4974372;28;20023;-71
2022/05/16 09:45:23;;;;;;;2.22;1.30;;;22.80;99.90;;;;;;4975293;28;20034;-70
2022/05/16 09:47:50;;;;;;;2.15;1.10;;;22.80;99.90;;;;;;4973780;28;20471;-69
2022/05/16 09:50:30;;;;;;;7.03;1.17;;;22.90;99.90;;;;;;4974312;28;20054;-72
2022/05/16 09:53:09;;;;;;;6.55;0.95;;;23.00;99.90;;;;;;4973077;28;20038;-69
2022/05/16 09:55:55;;;;;;;9.18;0.95;;;23.10;99.90;;;;;;4972312;28;20049;-72
2022/05/16 09:58:26;;;;;;;2.00;1.35;;;23.30;99.90;;;;;;4974467;28;20058;-73
2022/05/16 10:00:59;;;;;;;6.53;1.52;;;23.40;99.90;;;;;;4976704;28;20038;-71
2022/05/16 10:03:27;;;;;;;10.67;1.77;;;23.50;99.90;;;;;;4976627;28;20038;-73
2022/05/16 10:05:54;;;;;;;7.07;1.70;;;23.60;99.90;;;;;;4977169;28;20054;-69
2022/05/16 10:08:46;;;;;;;2.15;1.10;;;23.70;99.90;;;;;;4977295;28;20031;-72
2022/05/16 10:11:22;;;;;;;7.63;1.52;;;23.80;99.90;;;;;;4975389;28;20043;-73
2022/05/16 10:13:49;;;;;;;5.38;1.27;;;23.80;99.90;;;;;;4977573;28;20038;-74
2022/05/16 10:16:18;;;;;;;2.60;1.08;;;23.70;99.90;;;;;;4977878;28;20087;-70
2022/05/16 10:18:53;;;;;;;3.97;1.42;;;23.70;99.90;;;;;;4977821;28;20030;-70
2022/05/16 10:21:36;;;;;;;6.93;1.23;;;23.80;99.90;;;;;;4976316;28;20094;-71
2022/05/16 10:24:07;;;;;;;3.50;1.20;;;24.00;99.90;;;;;;4975066;28;20027;-68
2022/05/16 10:26:37;;;;;;;3.78;0.82;;;24.10;99.90;;;;;;4976458;28;21459;-69
2022/05/16 10:29:08;;;;;;;4.38;1.17;;;24.10;99.90;;;;;;4976789;28;20038;-70
2022/05/16 10:34:42;;;;;;;3.05;1.30;;;24.30;99.90;;;;;;4976277;28;20058;-72
2022/05/16 10:37:08;;;;;;;2.58;1.42;;;24.50;99.90;;;;;;4976729;28;20530;-70
2022/05/16 10:39:39;;;;;;;3.53;1.13;;;24.60;99.90;;;;;;4975113;28;20034;-71
2022/05/16 10:42:54;;;;;;;4.85;0.98;;;24.80;99.90;;;;;;4977600;28;20128;-71
2022/05/16 10:45:24;;;;;;;3.20;1.30;;;24.90;99.90;;;;;;4970541;28;20547;-71
2022/05/16 10:48:05;;;;;;;3.95;1.25;;;24.90;99.90;;;;;;4976898;28;20110;-72
2022/05/16 10:50:50;;;;;;;2.08;1.10;;;25.00;99.90;;;;;;4976698;28;20030;-72
2022/05/16 10:53:40;;;;;;;1.55;1.08;;;25.00;99.90;;;;;;4976271;28;20022;-72
2022/05/16 10:56:34;;;;;;;2.72;1.30;;;25.10;99.90;;;;;;4977132;28;20027;-72
2022/05/16 10:59:10;;;;;;;3.88;1.48;;;25.10;99.90;;;;;;4975877;28;20019;-70
2022/05/16 11:02:16;;;;;;;3.65;1.45;;;25.10;99.90;;;;;;4976466;28;20113;-71
2022/05/16 11:05:08;;;;;;;2.38;1.13;;;25.00;99.90;;;;;;4958423;28;20030;-72
2022/05/16 11:07:50;;;;;;;5.38;1.20;;;25.00;99.90;;;;;;4975790;28;20475;-71
2022/05/16 11:10:31;;;;;;;3.10;1.30;;;25.00;99.90;;;;;;4976275;28;20485;-74
2022/05/16 11:13:20;;;;;;;3.72;1.67;;;25.00;99.90;;;;;;4976564;28;20043;-73
2022/05/16 11:15:56;;;;;;;7.85;1.70;;;25.20;99.90;;;;;;4977209;28;20027;-70
2022/05/16 11:18:31;;;;;;;3.65;1.13;;;25.30;99.90;;;;;;4977014;28;20035;-71
2022/05/16 11:21:12;;;;;;;8.80;1.75;;;25.50;99.90;;;;;;4975506;28;20427;-72
2022/05/16 11:23:45;;;;;;;3.55;1.52;;;25.80;99.90;;;;;;4977214;28;21081;-72
2022/05/16 11:26:31;;;;;;;4.07;1.50;;;25.90;99.40;;;;;;4975918;28;21084;-72
2022/05/16 11:29:19;;;;;;;5.03;1.52;;;26.00;99.60;;;;;;4975701;28;20035;-71
2022/05/16 11:31:53;;;;;;;3.97;1.50;;;26.10;99.90;;;;;;4965367;28;20027;-73
2022/05/16 11:35:01;;;;;;;5.85;1.63;;;26.20;99.70;;;;;;4973841;28;20027;-72
2022/05/16 11:37:51;;;;;;;4.40;1.73;;;26.30;99.60;;;;;;4976440;28;20020;-71
2022/05/16 11:40:44;;;;;;;4.35;1.23;;;26.30;99.90;;;;;;4976228;28;20035;-72
2022/05/16 11:43:34;;;;;;;3.95;1.17;;;26.40;98.80;;;;;;4974102;28;20042;-69
2022/05/16 11:46:12;;;;;;;2.45;1.20;;;26.40;98.70;;;;;;4975730;28;20030;-71
2022/05/16 11:48:51;;;;;;;2.40;1.25;;;26.30;99.30;;;;;;4973757;28;20038;-71
2022/05/16 11:51:23;;;;;;;4.18;1.63;;;26.20;98.80;;;;;;4974665;28;20022;-71
2022/05/16 11:53:57;;;;;;;1.95;1.27;;;26.00;99.10;;;;;;4976343;28;20034;-71
2022/05/16 12:02:15;;;;;;;3.90;1.33;;;25.90;98.60;;;;;;4976083;28;20098;-69
2022/05/16 12:04:51;;;;;;;2.75;1.20;;;25.80;99.00;;;;;;4956062;28;20107;-68
2022/05/16 12:07:30;;;;;;;4.63;1.25;;;25.80;99.00;;;;;;4975406;28;20047;-70
2022/05/16 12:10:15;;;;;;;3.50;1.92;;;25.70;98.40;;;;;;4956660;28;20027;-75
2022/05/16 12:12:48;;;;;;;1.92;1.15;;;25.50;98.30;;;;;;4973235;28;20046;-72
2022/05/16 12:15:26;;;;;;;8.03;1.23;;;25.50;98.50;;;;;;4974193;28;20042;-74
2022/05/16 12:17:55;;;;;;;6.03;1.25;;;25.40;98.30;;;;;;4974622;28;20091;-71
2022/05/16 12:21:00;;;;;;;2.80;1.63;;;25.40;97.90;;;;;;4975195;28;20463;-72
2022/05/16 12:23:44;;;;;;;3.70;1.35;;;25.50;97.40;;;;;;4974742;28;20025;-73
2022/05/16 12:26:10;;;;;;;2.50;1.40;;;25.60;97.70;;;;;;4975274;28;20043;-74
2022/05/16 12:28:36;;;;;;;6.55;1.40;;;25.90;98.40;;;;;;4974667;28;20035;-72
2022/05/16 12:31:04;;;;;;;4.47;1.50;;;26.10;98.30;;;;;;4974974;28;20104;-71
2022/05/16 12:33:42;;;;;;;2.72;1.25;;;26.20;98.50;;;;;;4975086;28;20031;-70
2022/05/16 12:36:25;;;;;;;3.53;1.50;;;26.30;98.50;;;;;;4974833;28;20110;-73
2022/05/16 12:39:02;;;;;;;7.65;1.48;;;26.50;98.00;;;;;;4974791;28;20055;-72
2022/05/16 12:41:47;;;;;;;2.53;1.60;;;26.80;98.50;;;;;;4974373;28;20031;-69
2022/05/16 12:44:27;;;;;;;3.70;1.33;;;27.10;98.20;;;;;;4976189;28;20616;-70
2022/05/16 12:47:12;;;;;;;4.63;1.45;;;27.40;98.70;;;;;;4974974;28;20031;-71
2022/05/16 12:49:50;;;;;;;2.65;1.38;;;27.70;96.60;;;;;;4974556;28;20031;-70
2022/05/16 12:52:37;;;;;;;1.67;1.02;;;28.00;98.20;;;;;;4974436;28;20067;-74
2022/05/16 12:55:44;;;;;;;3.75;1.50;;;28.20;96.40;;;;;;4974616;28;20046;-71
2022/05/16 12:58:20;;;;;;;5.25;1.50;;;28.30;95.40;;;;;;4936381;28;20522;-71
2022/05/16 13:00:57;;;;;;;7.07;1.92;;;28.10;95.30;;;;;;4974538;28;20031;-74
2022/05/16 13:03:47;;;;;;;4.88;1.70;;;28.00;94.90;;;;;;4957493;28;20041;-75
2022/05/16 13:06:31;;;;;;;1.70;1.17;;;28.00;95.00;;;;;;4973888;28;20471;-71
2022/05/16 13:09:50;;;;;;;8.45;1.17;;;28.20;95.10;;;;;;4974046;28;20113;-72
2022/05/16 13:12:24;;;;;;;6.40;1.38;;;28.30;94.20;;;;;;4930998;28;20089;-72
2022/05/16 13:15:26;;;;;;;2.97;1.40;;;28.40;94.60;;;;;;4973602;28;20023;-70
2022/05/16 13:17:57;;;;;;;6.68;1.65;;;28.50;94.00;;;;;;4974164;28;20110;-72
2022/05/16 13:20:29;;;;;;;2.83;1.33;;;28.60;95.10;;;;;;4976417;28;20015;-73
2022/05/16 13:22:55;;;;;;;3.40;1.40;;;28.70;95.20;;;;;;4975117;28;20119;-73
2022/05/16 13:25:23;;;;;;;5.15;1.33;;;28.90;94.90;;;;;;4974604;28;20023;-70
2022/05/16 13:30:38;;;;;;;5.57;1.50;;;29.10;94.60;;;;;;4974753;28;20067;-72
2022/05/16 13:35:39;;;;;;;2.97;1.67;;;29.20;94.60;;;;;;5086247;23;20047;-73
2022/05/16 13:38:07;;;;;;;3.03;1.60;;;29.20;94.10;;;;;;5001018;28;20103;-72
2022/05/16 13:40:40;;;;;;;7.32;1.98;;;29.10;93.90;;;;;;5002731;28;20475;-69
2022/05/16 13:43:41;;;;;;;4.55;1.42;;;29.20;93.30;;;;;;5002374;28;20029;-70
2022/05/16 13:46:09;;;;;;;2.70;1.40;;;29.20;92.40;;;;;;4971763;28;20045;-73
2022/05/16 13:48:36;;;;;;;2.40;1.30;;;29.20;93.30;;;;;;4996641;28;20069;-70
2022/05/16 13:51:03;;;;;;;1.65;1.23;;;29.60;94.10;;;;;;5002848;28;20074;-70
2022/05/16 13:53:30;;;;;;;1.65;1.20;;;29.80;94.00;;;;;;5002395;28;20030;-70
2022/05/16 13:55:57;;;;;;;5.80;1.88;;;30.10;94.40;;;;;;5002017;28;20022;-69
2022/05/16 13:58:27;;;;;;;3.40;1.80;;;30.20;93.70;;;;;;5002046;28;20026;-72
2022/05/16 14:01:19;;;;;;;6.95;1.30;;;30.20;93.00;;;;;;4985305;28;20390;-71
2022/05/16 14:03:59;;;;;;;5.00;1.63;;;30.20;93.00;;;;;;5002488;28;20045;-72
2022/05/16 14:06:39;;;;;;;2.33;1.58;;;30.10;92.30;;;;;;4998720;28;20038;-71
2022/05/16 14:09:37;;;;;;;5.95;1.70;;;29.80;92.90;;;;;;4995191;28;20038;-76
2022/05/16 14:12:06;;;;;;;5.45;1.90;;;29.70;92.30;;;;;;4956630;28;20113;-72
2022/05/16 14:14:33;;;;;;;1.63;1.25;;;29.80;92.80;;;;;;5002328;28;20018;-73
2022/05/16 14:17:02;;;;;;;8.43;1.60;;;30.00;93.40;;;;;;5000917;28;20038;-73
2022/05/16 14:19:46;;;;;;;2.22;1.42;;;30.40;92.90;;;;;;5000560;28;20121;-71
2022/05/16 14:22:26;;;;;;;3.83;1.58;;;30.60;92.20;;;;;;4998988;28;20506;-71
2022/05/16 14:25:00;;;;;;;2.53;1.17;;;31.00;91.80;;;;;;5002020;28;20090;-71
2022/05/16 14:27:37;;;;;;;1.95;1.42;;;31.30;92.80;;;;;;4998339;28;20042;-73
2022/05/16 14:30:16;;;;;;;3.00;1.40;;;31.30;91.70;;;;;;5001843;28;20136;-71
2022/05/16 14:32:47;;;;;;;3.15;1.40;;;31.00;91.20;;;;;;5001533;28;20034;-72
2022/05/16 14:35:24;;;;;;;4.30;2.17;;;30.60;91.70;;;;;;5007799;28;20018;-72
2022/05/16 14:37:55;;;;;;;7.20;2.15;;;30.30;91.60;;;;;;5013729;28;20042;-74
2022/05/16 14:40:24;;;;;;;4.65;1.60;;;30.20;92.10;;;;;;5013441;28;20034;-73
2022/05/16 14:43:31;;;;;;;3.85;2.03;;;30.10;92.10;;;;;;4995481;28;20097;-70
2022/05/16 14:48:51;;;;;;;2.03;1.40;;;29.60;91.80;;;;;;5016737;28;20108;-70
2022/05/16 14:51:24;;;;;;;4.38;1.45;;;29.90;92.70;;;;;;5017823;28;20038;-73
2022/05/16 14:53:51;;;;;;;14.07;1.50;;;30.50;92.40;;;;;;5016110;28;20471;-73
2022/05/16 14:56:18;;;;;;;3.88;1.60;;;30.80;92.50;;;;;;5016252;28;20493;-70
2022/05/16 14:58:43;;;;;;;10.73;1.55;;;31.10;92.30;;;;;;5016376;28;20081;-72
2022/05/16 15:04:03;;;;;;;7.82;2.17;;;31.60;92.10;;;;;;5014937;28;20033;-71
2022/05/16 15:06:31;;;;;;;2.83;1.65;;;31.50;91.10;;;;;;5015171;28;21556;-69
2022/05/16 15:08:59;;;;;;;3.42;1.55;;;31.40;91.00;;;;;;5015938;28;20025;-70
2022/05/16 15:11:29;;;;;;;6.72;1.75;;;31.30;91.10;;;;;;5015436;28;20461;-72
2022/05/16 15:13:55;;;;;;;10.23;2.30;;;31.20;91.40;;;;;;5016160;28;20029;-70
2022/05/16 15:16:21;;;;;;;1.95;1.40;;;31.00;90.40;;;;;;5014968;28;20073;-69
2022/05/16 15:18:47;;;;;;;5.20;1.83;;;30.60;90.50;;;;;;5015934;28;20026;-70
2022/05/16 15:21:13;;;;;;;2.53;1.40;;;30.10;90.60;;;;;;5015723;28;20029;-69
2022/05/16 15:23:39;;;;;;;4.70;1.20;;;29.80;90.50;;;;;;5015184;28;20034;-70
2022/05/16 15:26:06;;;;;;;9.98;1.75;;;30.00;91.30;;;;;;5015342;28;20044;-74
2022/05/16 15:28:33;;;;;;;2.47;1.38;;;30.30;91.20;;;;;;5016770;28;20030;-72
2022/05/16 15:30:59;;;;;;;2.03;1.33;;;30.30;91.20;;;;;;5014928;28;20077;-70
2022/05/16 15:33:24;;;;;;;3.70;1.88;;;30.30;91.00;;;;;;5015509;28;20434;-73
2022/05/16 15:35:50;;;;;;;3.05;2.03;;;29.90;90.70;;;;;;5015153;28;20098;-71
2022/05/16 15:38:18;;;;;;;4.60;1.67;;;29.80;90.90;;;;;;5015549;28;20015;-70
2022/05/16 15:40:46;;;;;;;2.05;1.35;;;29.60;91.00;;;;;;5013754;28;20026;-69
2022/05/16 15:43:12;;;;;;;1.92;1.42;;;29.30;91.30;;;;;;5014861;28;20466;-71
2022/05/16 15:45:39;;;;;;;4.13;1.77;;;28.80;91.30;;;;;;5014644;28;20055;-71
2022/05/16 15:48:09;;;;;;;2.58;1.60;;;28.20;91.60;;;;;;5015537;28;20046;-71
2022/05/16 15:50:36;;;;;;;2.92;1.70;;;27.80;92.00;;;;;;5016603;28;20026;-74
2022/05/16 15:53:03;;;;;;;6.95;1.63;;;27.60;92.50;;;;;;4997482;28;20043;-72
2022/05/16 15:55:30;;;;;;;9.35;2.17;;;27.30;93.00;;;;;;5013911;28;20026;-70
2022/05/16 15:57:56;;;;;;;5.95;2.10;;;27.10;93.30;;;;;;5016045;28;20423;-71
2022/05/16 16:00:22;;;;;;;10.10;2.15;;;26.90;93.70;;;;;;5013878;28;20074;-73
2022/05/16 16:02:54;;;;;;;3.10;1.88;;;26.70;93.70;;;;;;4998278;28;20030;-75
2022/05/16 16:10:53;;;;;;;3.45;2.03;;;26.20;94.00;;;;;;5013651;28;20041;-74
2022/05/16 16:13:27;;;;;;;3.90;1.70;;;26.10;94.30;;;;;;5013114;28;20037;-73
2022/05/16 16:15:58;;;;;;;2.60;1.90;;;26.10;94.40;;;;;;5014175;28;20026;-72
2022/05/16 16:18:27;;;;;;;3.85;1.95;;;26.00;94.80;;;;;;5013487;28;20042;-71
2022/05/16 16:20:54;;;;;;;2.72;1.80;;;25.90;94.80;;;;;;5015691;28;20042;-72
2022/05/16 16:23:22;;;;;;;5.82;1.70;;;25.80;95.50;;;;;;5014177;28;20029;-71
2022/05/16 16:25:48;;;;;;;2.85;1.90;;;25.80;95.90;;;;;;5014593;28;20042;-70
2022/05/16 16:28:14;;;;;;;4.47;1.90;;;25.70;96.10;;;;;;5015822;28;20030;-72
2022/05/16 16:30:44;;;;;;;20.23;2.72;;;25.70;96.30;;;;;;5013842;28;20082;-70
2022/05/16 16:33:12;;;;;;;4.40;1.90;;;25.60;96.30;;;;;;5002846;28;20121;-72
2022/05/16 16:35:38;;;;;;;3.88;2.03;;;25.50;96.40;;;;;;5013430;28;20038;-69
2022/05/16 16:38:08;;;;;;;3.88;1.60;;;25.40;96.60;;;;;;5014317;28;20056;-71
2022/05/16 16:40:40;;;;;;;4.90;1.88;;;25.30;96.40;;;;;;5013137;28;20026;-72
2022/05/16 16:43:22;;;;;;;3.30;1.98;;;25.20;96.40;;;;;;5014499;28;20079;-71
2022/05/16 16:45:49;;;;;;;3.35;2.03;;;25.20;96.60;;;;;;5014244;28;20029;-69
2022/05/16 16:48:14;;;;;;;5.55;1.88;;;25.10;96.60;;;;;;5014180;28;20098;-70
2022/05/16 16:50:40;;;;;;;2.08;1.30;;;25.00;96.60;;;;;;5014164;28;20078;-71
2022/05/16 16:57:27;;;;;;;3.17;1.73;;;25.00;96.90;;;;;;5014662;28;20088;-74
2022/05/16 16:58:53;;;;;;;2.15;1.65;;;25.00;97.30;;;;;;5012687;28;20033;-71
2022/05/16 17:01:18;;;;;;;3.00;1.67;;;24.90;97.30;;;;;;5013741;28;20030;-71
2022/05/16 17:03:44;;;;;;;4.45;1.92;;;24.70;97.60;;;;;;5013466;28;20030;-71
2022/05/16 17:06:11;;;;;;;4.13;2.00;;;24.70;97.70;;;;;;5013370;28;20077;-71
2022/05/16 17:08:37;;;;;;;5.32;2.05;;;24.60;97.90;;;;;;5012883;28;20037;-73
2022/05/16 17:11:07;;;;;;;4.63;2.25;;;24.60;98.10;;;;;;5012191;28;20080;-72
2022/05/16 17:13:40;;;;;;;4.20;1.65;;;24.50;98.20;;;;;;4996298;28;20088;-72
2022/05/16 17:16:11;;;;;;;3.95;2.60;;;24.40;98.40;;;;;;5013746;28;20018;-71
2022/05/16 17:18:38;;;;;;;3.35;2.03;;;24.40;98.70;;;;;;5012406;28;20022;-72
2022/05/16 17:21:07;;;;;;;3.67;1.85;;;24.40;98.80;;;;;;5014885;28;20064;-71
2022/05/16 17:23:34;;;;;;;10.98;2.47;;;24.30;98.90;;;;;;5013634;28;20034;-70
2022/05/16 17:26:00;;;;;;;10.82;2.15;;;24.20;99.00;;;;;;4996074;28;20042;-71
2022/05/16 17:28:26;;;;;;;4.55;1.85;;;24.20;99.20;;;;;;5014111;28;20093;-70
2022/05/16 17:31:00;;;;;;;7.38;2.60;;;24.10;99.40;;;;;;5012512;28;20437;-72
2022/05/16 17:33:26;;;;;;;3.30;1.92;;;24.10;99.70;;;;;;5013688;28;20481;-70
2022/05/16 17:35:52;;;;;;;2.95;1.77;;;24.00;99.60;;;;;;5012751;28;20058;-70
2022/05/16 17:38:17;;;;;;;6.95;1.88;;;24.00;99.70;;;;;;5012586;28;20041;-69
2022/05/16 17:40:43;;;;;;;5.30;2.00;;;24.00;99.90;;;;;;5012899;28;20182;-71
2022/05/16 17:43:12;;;;;;;2.05;1.60;;;24.00;99.90;;;;;;5012903;28;20022;-72